Time;durP1;ratioP1;P1;durP2;ratioP2;P2;SDS_P1;SDS_P2;PMS_P1;PMS_P2;Temp;Humidity;BMP_temperature;BMP_pressure;BME280_temperature;BME280_humidity;BME280_pressure;Samples;Min_cycle;Max_cycle;Signal;HPM_P1;HPM_P2
2022/05/03 00:02:46;;;;;;;0.50;0.50;;;;;;;6.12;78.27;98706.84;4934323;29;20111;-82
2022/05/03 00:05:59;;;;;;;0.60;0.60;;;;;;;6.07;78.55;98700.28;4934443;29;20099;-83
2022/05/03 00:08:37;;;;;;;0.60;0.60;;;;;;;6.01;78.57;98703.88;4897525;29;20055;-81
2022/05/03 00:11:20;;;;;;;0.60;0.60;;;;;;;5.91;78.75;98700.84;4902078;29;20079;-82
2022/05/03 00:14:17;;;;;;;0.60;0.60;;;;;;;5.89;79.11;98702.09;4933928;29;20083;-83
2022/05/03 00:16:45;;;;;;;0.50;0.50;;;;;;;5.83;79.63;98698.47;4900902;29;20105;-82
2022/05/03 00:19:12;;;;;;;0.52;0.52;;;;;;;5.88;79.70;98697.81;4916945;29;20052;-83
2022/05/03 00:21:39;;;;;;;0.50;0.50;;;;;;;5.86;79.49;98695.34;4933580;29;20051;-82
2022/05/03 00:24:07;;;;;;;0.60;0.60;;;;;;;5.85;79.99;98693.72;4933355;29;20060;-80
2022/05/03 00:26:36;;;;;;;0.50;0.50;;;;;;;5.92;79.59;98686.41;4933626;29;20076;-82
2022/05/03 00:29:04;;;;;;;0.60;0.60;;;;;;;5.95;79.87;98686.00;4933802;29;20056;-81
2022/05/03 00:31:31;;;;;;;0.60;0.60;;;;;;;5.93;80.08;98685.38;4933635;29;20063;-82
2022/05/03 00:33:59;;;;;;;0.60;0.60;;;;;;;5.85;80.02;98680.31;4933291;29;20507;-82
2022/05/03 00:36:26;;;;;;;0.60;0.60;;;;;;;5.75;80.43;98672.78;4916562;29;20134;-81
2022/05/03 00:38:56;;;;;;;0.60;0.60;;;;;;;5.69;80.78;98676.34;4922901;29;20145;-82
2022/05/03 00:41:59;;;;;;;0.60;0.60;;;;;;;5.74;81.26;98678.34;4952717;29;20051;-81
2022/05/03 00:45:00;;;;;;;0.60;0.60;;;;;;;5.69;81.30;98678.19;4935502;29;20063;-81
2022/05/03 00:47:51;;;;;;;0.60;0.60;;;;;;;5.64;81.43;98670.81;4951532;29;20054;-82
2022/05/03 00:50:41;;;;;;;0.60;0.60;;;;;;;5.55;81.98;98664.94;4952965;29;20138;-82
2022/05/03 00:53:38;;;;;;;0.60;0.60;;;;;;;5.59;81.98;98668.81;4935881;29;20139;-81
2022/05/03 00:56:27;;;;;;;0.60;0.60;;;;;;;5.59;82.22;98659.97;4923707;29;20047;-81
2022/05/03 00:59:19;;;;;;;0.50;0.50;;;;;;;5.54;82.17;98665.16;4935371;29;20510;-81
2022/05/03 01:02:04;;;;;;;0.60;0.60;;;;;;;5.47;82.76;98662.56;4952275;29;20047;-81
2022/05/03 01:04:34;;;;;;;0.60;0.60;;;;;;;5.42;82.98;98667.75;4935758;29;20063;-82
2022/05/03 01:07:18;;;;;;;0.60;0.60;;;;;;;5.37;83.39;98664.91;4935392;29;20051;-81
2022/05/03 01:10:22;;;;;;;0.60;0.60;;;;;;;5.33;83.66;98658.34;4936377;29;20062;-81
2022/05/03 01:13:00;;;;;;;0.50;0.50;;;;;;;5.36;84.03;98658.72;4952333;29;20051;-81
2022/05/03 01:15:38;;;;;;;0.50;0.50;;;;;;;5.32;84.04;98646.84;4952257;29;20057;-81
2022/05/03 01:18:17;;;;;;;0.60;0.60;;;;;;;5.34;84.16;98649.28;4935153;29;20067;-81
2022/05/03 01:21:21;;;;;;;0.50;0.50;;;;;;;5.30;84.64;98648.91;4952030;29;20083;-81
2022/05/03 01:24:04;;;;;;;0.60;0.60;;;;;;;5.27;84.61;98640.50;4952006;29;20140;-81
2022/05/03 01:27:02;;;;;;;0.60;0.60;;;;;;;5.18;84.85;98630.06;4952225;29;20118;-82
2022/05/03 01:29:33;;;;;;;0.60;0.60;;;;;;;5.07;85.13;98628.09;4952652;29;20506;-82
2022/05/03 01:32:01;;;;;;;0.50;0.50;;;;;;;5.10;85.35;98626.84;4935061;29;20400;-80
2022/05/03 01:34:29;;;;;;;0.57;0.57;;;;;;;5.04;85.43;98628.53;4935095;29;20051;-81
2022/05/03 01:36:59;;;;;;;0.60;0.60;;;;;;;5.04;85.67;98633.06;4934819;29;20050;-81
2022/05/03 01:39:34;;;;;;;0.60;0.60;;;;;;;4.99;85.66;98625.72;4935072;29;20062;-81
2022/05/03 01:42:11;;;;;;;0.60;0.60;;;;;;;5.01;86.11;98623.59;4935711;29;20078;-81
2022/05/03 01:44:54;;;;;;;0.60;0.60;;;;;;;4.99;85.79;98620.34;4937697;29;20099;-83
2022/05/03 01:47:22;;;;;;;0.60;0.60;;;;;;;4.93;85.98;98622.03;4955647;29;20055;-81
2022/05/03 01:50:21;;;;;;;0.60;0.60;;;;;;;4.90;86.19;98624.31;4955624;29;20051;-82
2022/05/03 01:53:22;;;;;;;0.60;0.60;;;;;;;4.96;86.51;98626.97;4940228;29;20406;-80
2022/05/03 01:56:30;;;;;;;0.60;0.60;;;;;;;4.94;86.16;98623.69;4955440;29;20418;-82
2022/05/03 01:59:09;;;;;;;0.50;0.50;;;;;;;4.96;86.24;98623.44;4938103;29;20079;-80
2022/05/03 02:01:39;;;;;;;0.60;0.60;;;;;;;4.90;86.25;98617.13;4922765;29;20067;-81
2022/05/03 02:04:29;;;;;;;0.50;0.50;;;;;;;4.96;86.25;98621.63;4955002;29;20062;-81
2022/05/03 02:07:33;;;;;;;0.50;0.50;;;;;;;4.91;86.07;98609.91;4954995;29;20110;-81
2022/05/03 02:10:06;;;;;;;0.50;0.50;;;;;;;4.88;86.17;98624.53;4955164;29;20047;-81
2022/05/03 02:12:37;;;;;;;0.60;0.60;;;;;;;4.87;86.03;98622.91;4953767;29;20055;-81
2022/05/03 02:15:10;;;;;;;0.40;0.40;;;;;;;4.90;86.03;98621.66;4884825;29;20055;-82
2022/05/03 02:17:54;;;;;;;0.60;0.60;;;;;;;4.91;85.93;98615.25;4916670;29;20104;-81
2022/05/03 02:20:40;;;;;;;0.60;0.60;;;;;;;4.94;85.64;98622.88;4917022;29;20055;-81
2022/05/03 02:23:22;;;;;;;0.50;0.50;;;;;;;4.96;85.58;98607.41;4916986;29;20084;-81
2022/05/03 02:26:46;;;;;;;0.60;0.60;;;;;;;4.98;85.22;98608.81;4915578;29;20063;-81
2022/05/03 02:29:18;;;;;;;0.60;0.60;;;;;;;5.01;85.38;98607.56;4876560;29;20061;-81
2022/05/03 02:31:57;;;;;;;0.50;0.50;;;;;;;5.04;85.04;98604.47;4876434;29;20052;-81
2022/05/03 02:34:45;;;;;;;0.50;0.50;;;;;;;5.08;85.35;98610.19;4876676;29;20057;-81
2022/05/03 02:37:22;;;;;;;0.60;0.60;;;;;;;5.12;85.38;98606.88;4876799;29;20061;-81
2022/05/03 02:39:52;;;;;;;0.50;0.50;;;;;;;5.16;85.38;98605.38;4876150;29;20531;-82
2022/05/03 02:42:21;;;;;;;0.52;0.52;;;;;;;5.18;85.00;98605.97;4876611;29;20049;-82
2022/05/03 02:44:48;;;;;;;0.60;0.60;;;;;;;5.17;85.14;98601.69;4860939;29;20139;-81
2022/05/03 02:47:42;;;;;;;0.60;0.60;;;;;;;5.21;85.18;98597.50;4861125;29;20060;-81
2022/05/03 02:50:13;;;;;;;0.60;0.60;;;;;;;5.21;85.19;98594.03;4876433;29;20077;-81
2022/05/03 02:53:02;;;;;;;0.57;0.57;;;;;;;5.25;84.96;98595.22;4876317;29;20049;-82
2022/05/03 02:55:42;;;;;;;0.60;0.60;;;;;;;5.21;85.10;98597.50;4876441;29;20632;-81
2022/05/03 02:58:24;;;;;;;0.60;0.60;;;;;;;5.19;85.06;98594.25;4876498;29;20045;-82
2022/05/03 03:04:38;;;;;;;0.60;0.60;;;;;;;5.28;85.12;98585.94;4902289;29;20060;-81
2022/05/03 03:07:05;;;;;;;0.60;0.60;;;;;;;5.34;85.12;98587.72;4900082;29;20472;-80
2022/05/03 03:09:32;;;;;;;0.60;0.60;;;;;;;5.37;84.95;98585.44;4899350;29;20357;-81
2022/05/03 03:12:03;;;;;;;0.60;0.60;;;;;;;5.42;84.87;98588.28;4915719;29;20052;-81
2022/05/03 03:14:45;;;;;;;0.60;0.60;;;;;;;5.52;84.71;98581.56;4899091;29;20052;-81
2022/05/03 03:17:20;;;;;;;0.60;0.60;;;;;;;5.58;84.54;98580.69;4900039;29;20423;-83
2022/05/03 03:19:57;;;;;;;0.60;0.60;;;;;;;5.67;84.17;98570.50;4917495;29;20075;-80
2022/05/03 03:22:29;;;;;;;0.60;0.60;;;;;;;5.78;83.84;98572.44;4916891;29;20047;-80
2022/05/03 03:25:00;;;;;;;0.50;0.50;;;;;;;5.88;83.51;98558.53;4918169;29;20059;-82
2022/05/03 03:27:31;;;;;;;0.50;0.50;;;;;;;5.96;82.80;98563.63;4918221;29;20504;-80
2022/05/03 03:30:01;;;;;;;0.60;0.60;;;;;;;6.06;82.81;98564.72;4915876;29;20116;-82
2022/05/03 03:32:30;;;;;;;0.60;0.60;;;;;;;6.23;82.31;98562.22;4900261;29;20072;-81
2022/05/03 03:34:59;;;;;;;0.70;0.70;;;;;;;6.47;81.54;98568.47;4915980;29;20056;-81
2022/05/03 03:37:31;;;;;;;0.55;0.55;;;;;;;6.82;80.12;98575.78;4916157;29;20052;-82
2022/05/03 03:40:03;;;;;;;0.60;0.60;;;;;;;7.00;79.40;98574.06;4916263;29;20048;-82
2022/05/03 03:42:31;;;;;;;0.60;0.60;;;;;;;7.17;78.53;98561.59;4899367;29;20115;-80
2022/05/03 03:45:08;;;;;;;0.50;0.50;;;;;;;7.23;78.27;98568.72;4898675;29;20043;-82
2022/05/03 03:47:36;;;;;;;0.60;0.60;;;;;;;7.23;78.09;98560.66;4916078;29;20296;-81
2022/05/03 03:50:05;;;;;;;0.60;0.60;;;;;;;7.20;78.04;98553.09;4898849;29;20084;-80
2022/05/03 03:52:35;;;;;;;0.60;0.60;;;;;;;7.24;77.87;98553.41;4915896;29;20486;-82
2022/05/03 03:55:09;;;;;;;0.50;0.50;;;;;;;7.14;78.01;98551.31;4883882;29;20115;-80
2022/05/03 03:57:37;;;;;;;0.60;0.60;;;;;;;7.13;78.39;98555.88;4915399;29;20511;-81
2022/05/03 04:00:10;;;;;;;0.50;0.50;;;;;;;7.13;78.61;98558.56;4898658;29;20075;-80
2022/05/03 04:02:41;;;;;;;0.60;0.60;;;;;;;7.29;78.25;98559.75;4914804;29;20583;-82
2022/05/03 04:05:23;;;;;;;0.50;0.50;;;;;;;7.46;77.66;98553.66;4897766;29;20143;-82
2022/05/03 04:07:51;;;;;;;0.50;0.50;;;;;;;7.58;77.19;98557.13;4914789;29;20060;-80
2022/05/03 04:10:19;;;;;;;0.60;0.60;;;;;;;7.84;76.37;98546.91;4914853;29;20520;-81
2022/05/03 04:12:47;;;;;;;0.52;0.52;;;;;;;8.14;75.54;98555.59;4914634;29;20076;-81
2022/05/03 04:15:14;;;;;;;0.50;0.50;;;;;;;8.26;74.59;98547.47;4897818;29;20430;-81
2022/05/03 04:17:45;;;;;;;0.60;0.60;;;;;;;8.25;74.78;98541.28;4882059;29;20064;-80
2022/05/03 04:20:16;;;;;;;0.57;0.57;;;;;;;8.18;74.88;98547.88;4897250;29;20475;-81
2022/05/03 04:22:43;;;;;;;0.70;0.70;;;;;;;8.28;74.76;98552.59;4914104;29;20063;-81
2022/05/03 04:25:11;;;;;;;0.52;0.52;;;;;;;8.33;74.58;98550.00;4913742;29;20060;-81
2022/05/03 04:27:38;;;;;;;0.57;0.57;;;;;;;8.41;74.43;98555.84;4896918;29;20044;-82
2022/05/03 04:30:07;;;;;;;0.50;0.50;;;;;;;8.41;73.88;98533.53;4913901;29;20056;-80
2022/05/03 04:32:34;;;;;;;0.60;0.60;;;;;;;8.33;74.02;98536.56;4896653;29;20075;-81
2022/05/03 04:35:02;;;;;;;0.60;0.60;;;;;;;8.44;73.96;98533.84;4913531;29;20171;-81
2022/05/03 04:37:34;;;;;;;0.57;0.57;;;;;;;8.55;73.56;98537.53;4913766;29;20059;-80
2022/05/03 04:40:01;;;;;;;0.50;0.50;;;;;;;8.62;73.11;98529.31;4913458;29;20166;-81
2022/05/03 04:42:30;;;;;;;0.60;0.60;;;;;;;8.74;72.94;98519.31;4913760;29;20507;-81
2022/05/03 04:44:58;;;;;;;0.60;0.60;;;;;;;9.08;72.11;98527.34;4912998;29;20059;-81
2022/05/03 04:47:25;;;;;;;0.60;0.60;;;;;;;9.09;71.30;98535.19;4912914;29;20084;-81
2022/05/03 04:49:54;;;;;;;0.60;0.60;;;;;;;9.09;71.18;98537.09;4901481;29;20076;-82
2022/05/03 04:52:24;;;;;;;0.50;0.50;;;;;;;9.09;71.20;98534.38;4914498;29;20075;-80
2022/05/03 04:54:51;;;;;;;0.60;0.60;;;;;;;9.13;71.00;98534.69;4914996;29;20084;-81
2022/05/03 04:57:18;;;;;;;0.50;0.50;;;;;;;9.14;71.21;98525.53;4916039;29;20060;-81
2022/05/03 04:59:48;;;;;;;0.60;0.60;;;;;;;9.14;70.99;98515.63;4916059;29;20064;-83
2022/05/03 05:02:15;;;;;;;0.50;0.50;;;;;;;9.24;70.58;98529.22;4915561;29;20552;-81
2022/05/03 05:04:46;;;;;;;0.60;0.60;;;;;;;9.16;70.79;98529.63;4914203;29;20059;-82
2022/05/03 05:07:13;;;;;;;0.60;0.60;;;;;;;9.16;71.09;98521.53;4914430;29;20116;-82
2022/05/03 05:10:23;;;;;;;0.60;0.60;;;;;;;9.32;70.67;98528.00;4913911;29;20510;-81
2022/05/03 05:12:33;;;;;;;0.60;0.60;;;;;;;9.57;70.06;98521.28;4913922;29;20583;-82
2022/05/03 05:15:01;;;;;;;0.60;0.60;;;;;;;9.68;69.54;98507.72;4897861;29;20088;-82
2022/05/03 05:17:33;;;;;;;0.50;0.50;;;;;;;9.66;69.36;98512.53;4861585;29;1558208;-82
2022/05/03 05:20:00;;;;;;;0.65;0.65;;;;;;;9.75;68.93;98510.22;4918305;29;20138;-81
2022/05/03 05:22:29;;;;;;;0.50;0.50;;;;;;;9.64;68.88;98503.06;4901708;29;20052;-80
2022/05/03 05:24:56;;;;;;;0.60;0.60;;;;;;;9.59;69.38;98508.41;4918140;29;20052;-81
2022/05/03 05:27:23;;;;;;;0.60;0.60;;;;;;;9.83;68.72;98496.31;4901557;29;20062;-81
2022/05/03 05:29:50;;;;;;;0.60;0.60;;;;;;;10.14;67.14;98502.03;4918128;29;20422;-81
2022/05/03 05:32:19;;;;;;;0.60;0.60;;;;;;;10.27;67.10;98493.53;4918590;29;20048;-81
2022/05/03 05:34:49;;;;;;;0.50;0.50;;;;;;;10.24;67.16;98506.72;4917885;29;20057;-81
2022/05/03 05:37:16;;;;;;;0.60;0.60;;;;;;;10.34;66.72;98483.38;4902018;29;20055;-81
2022/05/03 05:39:44;;;;;;;0.60;0.60;;;;;;;10.73;65.55;98495.84;4918158;29;20574;-81
2022/05/03 05:42:12;;;;;;;0.60;0.60;;;;;;;10.89;65.16;98472.47;4918155;29;20529;-81
2022/05/03 05:44:39;;;;;;;0.60;0.60;;;;;;;11.23;63.85;98481.09;4900860;29;20052;-81
2022/05/03 05:47:06;;;;;;;0.60;0.60;;;;;;;11.24;63.79;98475.44;4901358;29;20055;-81
2022/05/03 05:49:34;;;;;;;0.50;0.50;;;;;;;11.13;64.21;98476.44;4901490;29;20482;-81
2022/05/03 05:54:46;;;;;;;0.50;0.50;;;;;;;10.94;64.76;98469.81;4917644;29;20179;-81
2022/05/03 05:57:15;;;;;;;0.60;0.60;;;;;;;11.03;64.57;98454.75;4917964;29;20063;-81
2022/05/03 05:59:42;;;;;;;0.50;0.50;;;;;;;11.10;64.32;98458.06;4900400;29;20059;-81
2022/05/03 06:02:14;;;;;;;0.60;0.60;;;;;;;11.12;63.72;98449.69;4917860;29;20048;-81
2022/05/03 06:04:41;;;;;;;0.50;0.50;;;;;;;11.05;63.68;98431.03;4900445;29;20149;-81
2022/05/03 06:07:10;;;;;;;0.50;0.50;;;;;;;11.03;63.69;98452.06;4917457;29;20602;-81
2022/05/03 06:09:37;;;;;;;0.50;0.50;;;;;;;10.89;64.64;98454.41;4917789;29;20048;-80
2022/05/03 06:12:05;;;;;;;0.40;0.40;;;;;;;10.93;64.58;98446.59;4917669;29;20075;-82
2022/05/03 06:14:34;;;;;;;0.50;0.50;;;;;;;10.73;64.94;98431.88;4900872;29;20088;-80
2022/05/03 06:17:02;;;;;;;0.60;0.60;;;;;;;10.74;65.21;98448.91;4916916;29;20542;-81
2022/05/03 06:19:29;;;;;;;0.50;0.50;;;;;;;10.91;64.57;98436.06;4903791;29;20079;-82
2022/05/03 06:21:56;;;;;;;0.50;0.50;;;;;;;11.27;63.92;98426.28;4927174;29;20118;-81
2022/05/03 06:24:23;;;;;;;0.60;0.60;;;;;;;11.56;62.91;98419.63;4924810;29;20048;-81
2022/05/03 06:27:09;;;;;;;0.60;0.60;;;;;;;11.92;62.22;98431.38;4925321;29;20099;-81
2022/05/03 06:29:36;;;;;;;0.60;0.60;;;;;;;12.33;60.40;98434.97;4924251;29;20147;-81
2022/05/03 06:32:04;;;;;;;0.50;0.50;;;;;;;12.40;59.37;98404.94;4922758;29;20067;-82
2022/05/03 06:34:32;;;;;;;0.60;0.60;;;;;;;12.55;59.48;98421.16;4922943;29;20051;-82
2022/05/03 06:36:59;;;;;;;0.60;0.60;;;;;;;12.70;58.37;98422.25;4925603;29;20163;-84
2022/05/03 06:39:27;;;;;;;0.60;0.60;;;;;;;12.95;58.00;98414.06;4917147;29;20048;-83
2022/05/03 06:41:54;;;;;;;0.50;0.50;;;;;;;12.93;57.75;98421.66;4900095;29;20052;-82
2022/05/03 06:44:22;;;;;;;0.50;0.50;;;;;;;13.31;57.41;98405.88;4884504;29;20578;-82
2022/05/03 06:46:52;;;;;;;0.50;0.50;;;;;;;13.28;55.74;98421.88;4899983;29;20052;-83
2022/05/03 06:49:20;;;;;;;0.50;0.50;;;;;;;13.08;55.45;98401.84;4923483;29;20052;-81
2022/05/03 06:51:47;;;;;;;0.50;0.50;;;;;;;13.14;55.39;98405.34;4902559;29;20606;-83
2022/05/03 06:54:14;;;;;;;0.50;0.50;;;;;;;13.28;54.79;98409.13;4917613;29;20123;-83
2022/05/03 06:56:44;;;;;;;0.50;0.50;;;;;;;13.15;55.06;98396.16;4921592;29;20055;-82
2022/05/03 06:59:19;;;;;;;0.45;0.45;;;;;;;13.07;54.61;98378.56;4920468;29;20107;-84
2022/05/03 07:01:47;;;;;;;0.50;0.50;;;;;;;13.28;53.95;98387.47;4915611;29;20052;-81
2022/05/03 07:04:14;;;;;;;0.50;0.50;;;;;;;13.42;54.00;98391.19;4899446;29;20064;-81
2022/05/03 07:06:41;;;;;;;0.40;0.40;;;;;;;13.59;53.58;98384.59;4900328;29;20076;-80
2022/05/03 07:09:11;;;;;;;0.50;0.50;;;;;;;13.94;53.08;98374.63;4916977;29;20107;-81
2022/05/03 07:11:38;;;;;;;0.50;0.50;;;;;;;14.16;52.23;98412.22;4916792;29;20044;-84
2022/05/03 07:14:06;;;;;;;0.50;0.50;;;;;;;14.15;51.80;98392.38;4899580;29;20546;-81
2022/05/03 07:16:35;;;;;;;0.50;0.50;;;;;;;14.22;50.90;98382.03;4899731;29;20248;-82
2022/05/03 07:24:39;;;;;;;0.43;0.43;;;;;;;14.58;49.81;98387.19;4918485;29;20458;-81
2022/05/03 07:27:07;;;;;;;0.60;0.60;;;;;;;14.81;49.61;98363.88;4918532;29;20416;-82
2022/05/03 07:29:37;;;;;;;0.50;0.50;;;;;;;15.20;48.51;98379.22;4919138;29;20055;-81
2022/05/03 07:32:05;;;;;;;0.60;0.60;;;;;;;15.06;48.03;98379.06;4935080;29;20426;-82
2022/05/03 07:34:32;;;;;;;0.50;0.50;;;;;;;14.93;48.82;98374.34;4902645;29;20459;-82
2022/05/03 07:36:59;;;;;;;0.60;0.60;;;;;;;15.22;47.74;98373.47;4918344;29;20573;-81
2022/05/03 07:39:26;;;;;;;0.60;0.60;;;;;;;14.95;48.27;98355.84;4934829;29;20146;-82
2022/05/03 07:41:53;;;;;;;0.50;0.50;;;;;;;15.00;48.00;98361.22;4934142;29;20087;-80
2022/05/03 07:44:20;;;;;;;0.40;0.40;;;;;;;14.87;47.80;98354.56;4934973;29;20043;-81
2022/05/03 07:46:48;;;;;;;0.40;0.40;;;;;;;14.66;48.02;98356.69;4934872;29;20059;-81
2022/05/03 07:49:18;;;;;;;0.40;0.40;;;;;;;14.26;47.39;98358.66;4918481;29;20051;-82
2022/05/03 07:51:45;;;;;;;0.40;0.40;;;;;;;14.12;47.92;98349.53;4917796;29;20106;-82
2022/05/03 07:54:12;;;;;;;0.40;0.40;;;;;;;14.13;47.37;98364.75;4934829;29;20052;-81
2022/05/03 07:56:39;;;;;;;0.60;0.60;;;;;;;14.17;47.15;98345.97;4934805;29;20075;-82
2022/05/03 07:59:09;;;;;;;0.40;0.40;;;;;;;14.06;47.39;98329.78;4934936;29;20168;-81
2022/05/03 08:01:40;;;;;;;0.40;0.40;;;;;;;14.02;46.93;98331.44;4935323;29;20047;-81
2022/05/03 08:04:07;;;;;;;0.40;0.40;;;;;;;14.08;47.46;98343.06;4936116;29;20504;-82
2022/05/03 08:06:36;;;;;;;0.60;0.60;;;;;;;14.35;45.32;98341.75;4937898;29;20635;-81
2022/05/03 08:09:05;;;;;;;0.40;0.40;;;;;;;14.27;45.14;98316.84;4921307;29;20115;-81
2022/05/03 08:11:37;;;;;;;0.40;0.40;;;;;;;14.24;45.33;98333.69;4918464;29;20147;-80
2022/05/03 08:14:04;;;;;;;0.40;0.40;;;;;;;14.41;44.58;98329.78;4916994;29;20590;-82
2022/05/03 08:16:32;;;;;;;0.40;0.40;;;;;;;14.86;41.70;98349.41;4934456;29;20043;-80
2022/05/03 08:18:59;;;;;;;0.40;0.40;;;;;;;14.71;38.00;98315.91;4934381;29;20055;-81
2022/05/03 08:21:27;;;;;;;0.40;0.40;;;;;;;14.39;38.62;98331.97;4934919;29;20051;-81
2022/05/03 08:23:55;;;;;;;0.60;0.60;;;;;;;15.01;39.26;98327.50;4934785;29;20086;-81
2022/05/03 08:26:22;;;;;;;0.70;0.70;;;;;;;15.67;38.41;98325.81;4934601;29;20048;-81
2022/05/03 08:28:50;;;;;;;0.40;0.40;;;;;;;15.53;38.38;98323.03;4932619;29;20058;-82
2022/05/03 08:31:22;;;;;;;0.60;0.60;;;;;;;15.66;36.78;98320.69;4934273;29;20090;-82
2022/05/03 08:33:50;;;;;;;0.50;0.50;;;;;;;15.13;37.28;98316.25;4933620;29;20044;-81
2022/05/03 08:36:17;;;;;;;0.80;0.80;;;;;;;15.82;36.73;98316.66;4917005;29;20111;-82
2022/05/03 08:44:18;;;;;;;0.70;0.70;;;;;;;16.40;34.89;98304.56;4933804;29;20054;-82
2022/05/03 08:46:46;;;;;;;0.50;0.50;;;;;;;16.19;34.63;98290.50;4916828;29;20467;-82
2022/05/03 08:49:16;;;;;;;0.40;0.40;;;;;;;15.58;36.31;98293.06;4917491;29;20052;-81
2022/05/03 08:51:44;;;;;;;0.40;0.40;;;;;;;15.29;36.64;98301.38;4902027;29;20059;-82
2022/05/03 08:54:11;;;;;;;0.35;0.35;;;;;;;15.00;37.35;98293.28;4916894;29;20078;-82
2022/05/03 08:56:39;;;;;;;0.40;0.40;;;;;;;14.78;37.38;98295.72;4934174;29;20058;-81
2022/05/03 08:59:07;;;;;;;0.40;0.40;;;;;;;14.51;38.29;98288.94;4918774;29;20051;-81
2022/05/03 09:01:36;;;;;;;0.40;0.40;;;;;;;14.87;38.31;98294.00;4933814;29;20142;-82
2022/05/03 09:04:03;;;;;;;0.40;0.40;;;;;;;14.54;38.38;98285.69;4933512;29;20057;-81
2022/05/03 09:06:43;;;;;;;0.50;0.50;;;;;;;14.61;38.39;98288.88;4916688;29;20083;-81
2022/05/03 09:09:12;;;;;;;0.80;0.80;;;;;;;15.45;36.79;98280.19;4933681;29;20062;-82
2022/05/03 09:11:49;;;;;;;0.80;0.80;;;;;;;16.79;35.03;98287.00;4916947;29;20086;-81
2022/05/03 09:14:35;;;;;;;0.80;0.80;;;;;;;17.26;34.33;98274.00;4933733;29;20515;-82
2022/05/03 09:17:03;;;;;;;0.40;0.40;;;;;;;17.47;33.80;98264.28;4916670;29;20423;-82
2022/05/03 09:19:30;;;;;;;0.40;0.40;;;;;;;16.89;34.64;98275.88;4933524;29;20103;-82
2022/05/03 09:24:54;;;;;;;0.40;0.40;;;;;;;15.78;36.80;98255.81;4933783;29;20058;-81
2022/05/03 09:27:22;;;;;;;0.80;0.80;;;;;;;16.84;35.52;98255.00;4933544;29;20471;-82
2022/05/03 09:30:09;;;;;;;0.80;0.80;;;;;;;17.88;33.07;98246.97;4933275;29;20150;-83
2022/05/03 09:32:44;;;;;;;0.85;0.85;;;;;;;18.24;33.04;98242.53;4916419;29;20071;-81
2022/05/03 09:35:30;;;;;;;0.70;0.70;;;;;;;18.01;33.29;98244.47;4916369;29;20427;-82
2022/05/03 09:37:58;;;;;;;0.80;0.80;;;;;;;18.34;32.46;98234.06;4933280;29;20055;-82
2022/05/03 09:40:29;;;;;;;0.40;0.40;;;;;;;18.61;31.68;98249.44;4916335;29;20044;-82
2022/05/03 09:43:01;;;;;;;0.70;0.70;;;;;;;17.27;33.61;98257.34;4933079;29;20056;-81
2022/05/03 09:45:29;;;;;;;0.70;0.70;;;;;;;18.26;31.94;98223.91;4916726;29;20054;-82
2022/05/03 09:47:59;;;;;;;0.60;0.60;;;;;;;18.52;31.68;98227.53;4916515;29;20080;-82
2022/05/03 09:50:29;;;;;;;0.40;0.40;;;;;;;18.88;31.27;98240.22;4916198;29;20058;-81
2022/05/03 09:52:58;;;;;;;0.40;0.40;;;;;;;17.73;31.91;98256.28;4933031;29;20479;-82
2022/05/03 09:55:33;;;;;;;0.30;0.30;;;;;;;16.56;33.80;98234.25;4916696;29;20138;-82
2022/05/03 09:58:10;;;;;;;0.85;0.85;;;;;;;16.66;34.32;98228.63;4932954;29;20058;-82
2022/05/03 10:00:42;;;;;;;0.90;0.90;;;;;;;18.04;32.69;98220.06;4916835;29;20051;-83
2022/05/03 10:03:14;;;;;;;0.73;0.73;;;;;;;19.09;30.92;98207.63;4931893;29;20056;-82
2022/05/03 10:05:45;;;;;;;0.88;0.88;;;;;;;19.69;30.06;98220.53;4935935;29;20044;-83
2022/05/03 10:08:16;;;;;;;0.80;0.80;;;;;;;19.73;29.83;98217.16;4936954;29;20047;-82
2022/05/03 10:10:56;;;;;;;0.80;0.80;;;;;;;20.53;27.85;98220.97;4936746;29;20463;-83
2022/05/03 10:13:25;;;;;;;0.88;0.88;;;;;;;19.97;27.88;98202.94;4936304;29;20167;-82
2022/05/03 10:21:35;;;;;;;0.80;0.80;;;;;;;17.62;31.38;98191.34;4921897;29;20471;-83
2022/05/03 10:24:10;;;;;;;0.40;0.40;;;;;;;17.30;32.18;98199.47;4919408;29;20099;-82
2022/05/03 10:27:05;;;;;;;0.90;0.90;;;;;;;18.40;29.86;98206.28;4950806;29;20052;-83
2022/05/03 10:29:35;;;;;;;0.80;0.80;;;;;;;19.65;28.11;98207.81;4936632;29;20047;-83
2022/05/03 10:32:03;;;;;;;0.55;0.55;;;;;;;19.30;28.66;98240.63;4934316;29;20051;-83
2022/05/03 10:34:53;;;;;;;0.90;0.90;;;;;;;19.86;28.22;98203.28;4919168;29;20134;-85
2022/05/03 10:37:34;;;;;;;0.90;0.90;;;;;;;20.24;27.76;98210.75;4936175;29;20071;-83
2022/05/03 10:40:07;;;;;;;0.88;0.88;;;;;;;20.68;27.20;98200.44;4936065;29;20058;-83
2022/05/03 10:42:35;;;;;;;0.90;0.90;;;;;;;20.97;26.24;98218.81;4936337;29;20074;-81
2022/05/03 10:45:06;;;;;;;0.90;0.90;;;;;;;20.92;26.36;98191.59;4918906;29;20092;-82
2022/05/03 10:47:50;;;;;;;0.70;0.70;;;;;;;20.70;26.20;98225.59;4935918;29;20048;-82
2022/05/03 10:50:17;;;;;;;0.30;0.30;;;;;;;18.72;28.87;98200.78;4936017;29;20091;-82
2022/05/03 10:52:59;;;;;;;0.30;0.30;;;;;;;17.79;30.43;98188.75;4935792;29;20058;-83
2022/05/03 10:55:28;;;;;;;0.38;0.38;;;;;;;17.62;30.46;98178.50;4918870;29;20098;-83
2022/05/03 10:58:34;;;;;;;0.40;0.40;;;;;;;17.10;31.46;98176.19;4918490;29;20047;-83
2022/05/03 11:01:18;;;;;;;1.00;1.00;;;;;;;17.84;30.53;98163.28;4935098;29;20431;-82
2022/05/03 11:03:51;;;;;;;0.90;0.90;;;;;;;19.73;28.47;98162.41;4918929;29;20507;-84
2022/05/03 11:06:22;;;;;;;0.90;0.90;;;;;;;20.78;26.22;98158.91;4918699;29;20054;-82
2022/05/03 11:14:19;;;;;;;0.90;0.90;;;;;;;21.88;24.09;98154.31;4917844;29;20387;-82
2022/05/03 11:17:04;;;;;;;0.40;0.40;;;;;;;21.62;24.52;98171.84;4917099;29;20519;-83
2022/05/03 11:19:37;;;;;;;0.30;0.30;;;;;;;19.98;26.30;98158.81;4935055;29;20146;-84
2022/05/03 11:22:12;;;;;;;0.90;0.90;;;;;;;20.23;26.65;98161.75;4918143;29;20447;-83
2022/05/03 11:24:47;;;;;;;0.70;0.70;;;;;;;21.29;25.22;98153.38;4935591;29;20047;-83
2022/05/03 11:27:16;;;;;;;0.90;0.90;;;;;;;21.86;24.23;98152.72;4934931;29;20062;-83
2022/05/03 11:29:45;;;;;;;0.90;0.90;;;;;;;21.72;24.47;98143.19;4902500;29;20052;-82
2022/05/03 11:32:16;;;;;;;0.30;0.30;;;;;;;20.50;25.56;98109.25;4935286;29;20051;-83
2022/05/03 11:34:43;;;;;;;0.90;0.90;;;;;;;19.70;26.55;98123.63;4920167;29;20051;-84
2022/05/03 11:37:12;;;;;;;0.85;0.85;;;;;;;20.88;25.22;98133.06;4937356;29;20043;-82
2022/05/03 11:39:42;;;;;;;0.30;0.30;;;;;;;21.01;24.59;98114.72;4938355;29;20116;-84
2022/05/03 11:42:10;;;;;;;0.90;0.90;;;;;;;21.68;24.42;98123.03;4935993;29;20135;-83
2022/05/03 11:44:43;;;;;;;0.90;0.90;;;;;;;22.16;23.87;98114.09;4918075;29;20115;-84
2022/05/03 11:47:14;;;;;;;0.30;0.30;;;;;;;20.08;25.37;98127.53;4917306;29;20051;-83
2022/05/03 11:49:43;;;;;;;0.30;0.30;;;;;;;18.80;26.71;98137.94;4934880;29;20062;-82
2022/05/03 11:57:42;;;;;;;0.90;0.90;;;;;;;20.22;26.16;98105.38;4935657;29;20075;-83
2022/05/03 12:00:12;;;;;;;0.90;0.90;;;;;;;21.28;24.60;98090.63;4935260;29;20130;-84
2022/05/03 12:02:44;;;;;;;0.30;0.30;;;;;;;19.85;25.91;98133.25;4917903;29;20048;-83
2022/05/03 12:05:17;;;;;;;0.30;0.30;;;;;;;19.86;26.02;98101.97;4934279;29;20051;-84
2022/05/03 12:07:50;;;;;;;0.30;0.30;;;;;;;18.62;27.36;98128.88;4934346;29;20051;-81
2022/05/03 12:10:48;;;;;;;0.47;0.47;;;;;;;18.63;27.70;98099.63;4934811;29;20066;-83
2022/05/03 12:13:26;;;;;;;0.30;0.30;;;;;;;19.64;26.13;98074.81;4876057;29;20571;-83
2022/05/03 12:15:56;;;;;;;1.00;1.00;;;;;;;19.56;26.71;98090.13;4875210;29;20061;-83
2022/05/03 12:18:33;;;;;;;0.90;0.90;;;;;;;21.51;24.36;98091.88;4859667;29;20057;-83
2022/05/03 12:21:14;;;;;;;0.90;0.90;;;;;;;22.65;22.93;98094.84;4859727;29;20049;-83
2022/05/03 12:23:47;;;;;;;0.30;0.30;;;;;;;20.24;24.71;98072.97;4875692;29;20060;-83
2022/05/03 12:26:35;;;;;;;0.30;0.30;;;;;;;18.50;26.84;98120.50;4875503;29;20063;-83
2022/05/03 12:29:06;;;;;;;0.82;0.82;;;;;;;19.40;26.27;98035.13;4875233;29;20060;-83
2022/05/03 12:31:40;;;;;;;0.30;0.30;;;;;;;19.66;25.88;98084.28;4860981;29;20080;-84
2022/05/03 12:34:23;;;;;;;0.90;0.90;;;;;;;20.86;25.12;98057.75;4875130;29;20053;-83
2022/05/03 12:37:04;;;;;;;0.30;0.30;;;;;;;20.45;25.30;98064.78;4861133;29;20472;-83
2022/05/03 12:39:36;;;;;;;0.32;0.32;;;;;;;18.68;27.38;98076.81;4875156;29;20063;-82
2022/05/03 12:42:10;;;;;;;0.50;0.50;;;;;;;19.04;27.23;98101.94;4875179;29;20331;-83
2022/05/03 12:44:49;;;;;;;1.00;1.00;;;;;;;19.98;25.79;98062.13;4845868;29;20045;-84